sensor_id;sensor_type;location;lat;lon;timestamp;pressure;altitude;pressure_sealevel;temperature;humidity
77587;BME280;66744;49.716;17.158;2023-04-15T00:00:41;97884.94;;;6.35;85.13
77587;BME280;66744;49.716;17.158;2023-04-15T00:03:42;97882.19;;;6.35;85.93
77587;BME280;66744;49.716;17.158;2023-04-15T00:06:49;97896.16;;;6.37;85.95
77587;BME280;66744;49.716;17.158;2023-04-15T00:09:51;97898.88;;;6.37;85.95
77587;BME280;66744;49.716;17.158;2023-04-15T00:12:55;97905.09;;;6.38;84.62
77587;BME280;66744;49.716;17.158;2023-04-15T00:15:56;97901.63;;;6.37;85.63
77587;BME280;66744;49.716;17.158;2023-04-15T00:18:58;97900.06;;;6.36;85.35
77587;BME280;66744;49.716;17.158;2023-04-15T00:21:59;97900.06;;;6.36;86.49
77587;BME280;66744;49.716;17.158;2023-04-15T00:25:01;97903.56;;;6.37;86.00
77587;BME280;66744;49.716;17.158;2023-04-15T00:28:03;97918.75;;;6.38;84.80
77587;BME280;66744;49.716;17.158;2023-04-15T00:31:04;97925.50;;;6.33;84.85
77587;BME280;66744;49.716;17.158;2023-04-15T00:34:05;97930.31;;;6.29;83.84
77587;BME280;66744;49.716;17.158;2023-04-15T00:37:08;97927.31;;;6.24;83.79
77587;BME280;66744;49.716;17.158;2023-04-15T00:40:12;97919.59;;;6.22;83.95
77587;BME280;66744;49.716;17.158;2023-04-15T00:43:13;97914.66;;;6.17;83.14
77587;BME280;66744;49.716;17.158;2023-04-15T00:46:15;97918.25;;;6.14;84.35
77587;BME280;66744;49.716;17.158;2023-04-15T00:49:17;97911.34;;;6.09;84.25
77587;BME280;66744;49.716;17.158;2023-04-15T00:52:19;97923.91;;;6.07;83.88
77587;BME280;66744;49.716;17.158;2023-04-15T00:55:20;97935.25;;;6.05;84.40
77587;BME280;66744;49.716;17.158;2023-04-15T00:58:22;97935.34;;;6.02;83.23
77587;BME280;66744;49.716;17.158;2023-04-15T01:01:24;97943.03;;;5.91;83.73
77587;BME280;66744;49.716;17.158;2023-04-15T01:04:26;97939.13;;;5.76;83.35
77587;BME280;66744;49.716;17.158;2023-04-15T01:07:27;97939.38;;;5.65;83.67
77587;BME280;66744;49.716;17.158;2023-04-15T01:10:30;97939.31;;;5.52;82.56
77587;BME280;66744;49.716;17.158;2023-04-15T01:13:32;97953.22;;;5.42;83.36
77587;BME280;66744;49.716;17.158;2023-04-15T01:16:34;97954.59;;;5.34;83.16
77587;BME280;66744;49.716;17.158;2023-04-15T01:19:36;97966.34;;;5.31;83.20
77587;BME280;66744;49.716;17.158;2023-04-15T01:22:37;97964.88;;;5.26;84.17
77587;BME280;66744;49.716;17.158;2023-04-15T01:25:42;97967.25;;;5.24;84.09
77587;BME280;66744;49.716;17.158;2023-04-15T01:28:44;97966.56;;;5.20;84.08
77587;BME280;66744;49.716;17.158;2023-04-15T01:31:52;97964.69;;;5.17;85.26
77587;BME280;66744;49.716;17.158;2023-04-15T01:34:54;97961.31;;;5.13;83.83
77587;BME280;66744;49.716;17.158;2023-04-15T01:38:04;97962.06;;;5.14;85.51
77587;BME280;66744;49.716;17.158;2023-04-15T01:41:06;97973.69;;;5.14;84.09
77587;BME280;66744;49.716;17.158;2023-04-15T01:44:10;97977.13;;;5.18;86.42
77587;BME280;66744;49.716;17.158;2023-04-15T01:47:14;97981.19;;;5.26;85.73
77587;BME280;66744;49.716;17.158;2023-04-15T01:50:16;97976.84;;;5.29;85.01
77587;BME280;66744;49.716;17.158;2023-04-15T01:53:17;97988.13;;;5.31;83.51
77587;BME280;66744;49.716;17.158;2023-04-15T01:56:18;97978.56;;;5.23;83.15
77587;BME280;66744;49.716;17.158;2023-04-15T01:59:21;97980.19;;;5.20;84.50
77587;BME280;66744;49.716;17.158;2023-04-15T02:02:22;97983.50;;;5.28;83.19
77587;BME280;66744;49.716;17.158;2023-04-15T02:05:24;97977.22;;;5.31;85.10
77587;BME280;66744;49.716;17.158;2023-04-15T02:08:25;97987.25;;;5.34;84.33
77587;BME280;66744;49.716;17.158;2023-04-15T02:11:26;97987.06;;;5.41;84.68
77587;BME280;66744;49.716;17.158;2023-04-15T02:14:28;97979.50;;;5.48;83.98
77587;BME280;66744;49.716;17.158;2023-04-15T02:17:29;97976.34;;;5.50;85.04
77587;BME280;66744;49.716;17.158;2023-04-15T02:20:30;97971.59;;;5.54;85.57
77587;BME280;66744;49.716;17.158;2023-04-15T02:23:32;97963.09;;;5.52;84.75
77587;BME280;66744;49.716;17.158;2023-04-15T02:26:33;97961.31;;;5.45;85.49
77587;BME280;66744;49.716;17.158;2023-04-15T02:29:34;97961.38;;;5.42;83.62
77587;BME280;66744;49.716;17.158;2023-04-15T02:32:36;97962.22;;;5.39;85.30
77587;BME280;66744;49.716;17.158;2023-04-15T02:35:37;97961.91;;;5.37;85.32
77587;BME280;66744;49.716;17.158;2023-04-15T02:38:42;97951.78;;;5.37;87.33
77587;BME280;66744;49.716;17.158;2023-04-15T02:41:43;97957.22;;;5.37;85.62
77587;BME280;66744;49.716;17.158;2023-04-15T02:44:48;97951.41;;;5.35;85.44
77587;BME280;66744;49.716;17.158;2023-04-15T02:47:49;97956.53;;;5.33;85.63
77587;BME280;66744;49.716;17.158;2023-04-15T02:50:50;97971.25;;;5.36;85.31
77587;BME280;66744;49.716;17.158;2023-04-15T02:53:52;97970.72;;;5.41;84.80
77587;BME280;66744;49.716;17.158;2023-04-15T02:56:53;97972.28;;;5.42;86.41
77587;BME280;66744;49.716;17.158;2023-04-15T02:59:56;97971.84;;;5.43;85.51
77587;BME280;66744;49.716;17.158;2023-04-15T03:03:03;97967.94;;;5.44;84.98
77587;BME280;66744;49.716;17.158;2023-04-15T03:06:04;97967.59;;;5.42;85.04
77587;BME280;66744;49.716;17.158;2023-04-15T03:09:06;97976.34;;;5.50;84.78
77587;BME280;66744;49.716;17.158;2023-04-15T03:12:10;97975.50;;;5.53;85.44
77587;BME280;66744;49.716;17.158;2023-04-15T03:15:11;97974.66;;;5.56;84.59
77587;BME280;66744;49.716;17.158;2023-04-15T03:18:17;97976.88;;;5.61;86.10
77587;BME280;66744;49.716;17.158;2023-04-15T03:21:18;97987.00;;;5.60;85.30
77587;BME280;66744;49.716;17.158;2023-04-15T03:24:25;97978.75;;;5.48;84.16
77587;BME280;66744;49.716;17.158;2023-04-15T03:27:26;97971.25;;;5.36;85.25
77587;BME280;66744;49.716;17.158;2023-04-15T03:30:30;97982.31;;;5.29;85.63
77587;BME280;66744;49.716;17.158;2023-04-15T03:33:32;97984.00;;;5.23;85.38
77587;BME280;66744;49.716;17.158;2023-04-15T03:36:33;97982.66;;;5.15;85.81
77587;BME280;66744;49.716;17.158;2023-04-15T03:39:34;97989.56;;;5.19;86.14
77587;BME280;66744;49.716;17.158;2023-04-15T03:42:35;97989.56;;;5.19;85.40
77587;BME280;66744;49.716;17.158;2023-04-15T03:45:37;97992.03;;;5.14;85.47
77587;BME280;66744;49.716;17.158;2023-04-15T03:48:38;97984.69;;;5.11;85.12
77587;BME280;66744;49.716;17.158;2023-04-15T03:51:39;97982.13;;;5.03;85.82
77587;BME280;66744;49.716;17.158;2023-04-15T03:54:40;97982.63;;;4.98;86.22
77587;BME280;66744;49.716;17.158;2023-04-15T03:57:42;97978.44;;;4.94;85.52
77587;BME280;66744;49.716;17.158;2023-04-15T04:00:43;97974.28;;;4.89;84.82
77587;BME280;66744;49.716;17.158;2023-04-15T04:03:44;97966.53;;;4.88;85.54
77587;BME280;66744;49.716;17.158;2023-04-15T04:06:45;97964.84;;;4.94;85.59
77587;BME280;66744;49.716;17.158;2023-04-15T04:09:46;97972.59;;;4.95;86.14
77587;BME280;66744;49.716;17.158;2023-04-15T04:12:48;97977.28;;;4.95;85.09
77587;BME280;66744;49.716;17.158;2023-04-15T04:15:49;97983.63;;;4.88;83.84
77587;BME280;66744;49.716;17.158;2023-04-15T04:18:50;97995.69;;;4.87;84.78
77587;BME280;66744;49.716;17.158;2023-04-15T04:21:51;97994.19;;;4.86;85.60
77587;BME280;66744;49.716;17.158;2023-04-15T04:24:52;97997.22;;;4.88;85.46
77587;BME280;66744;49.716;17.158;2023-04-15T04:27:54;97990.88;;;4.95;83.89
77587;BME280;66744;49.716;17.158;2023-04-15T04:30:55;97998.13;;;5.01;83.91
77587;BME280;66744;49.716;17.158;2023-04-15T04:33:59;97992.25;;;5.03;84.15
77587;BME280;66744;49.716;17.158;2023-04-15T04:37:00;97983.66;;;5.04;84.14
77587;BME280;66744;49.716;17.158;2023-04-15T04:40:02;97982.91;;;5.04;84.53
77587;BME280;66744;49.716;17.158;2023-04-15T04:43:04;97975.31;;;5.12;85.37
77587;BME280;66744;49.716;17.158;2023-04-15T04:46:06;97987.50;;;5.23;85.00
77587;BME280;66744;49.716;17.158;2023-04-15T04:49:07;97989.03;;;5.24;83.84
77587;BME280;66744;49.716;17.158;2023-04-15T04:52:08;97993.72;;;5.24;84.62
77587;BME280;66744;49.716;17.158;2023-04-15T04:55:09;98004.84;;;5.29;86.10
77587;BME280;66744;49.716;17.158;2023-04-15T04:58:10;98004.25;;;5.38;86.60
77587;BME280;66744;49.716;17.158;2023-04-15T05:01:12;98006.50;;;5.43;83.57
77587;BME280;66744;49.716;17.158;2023-04-15T05:04:13;98007.09;;;5.50;84.88
77587;BME280;66744;49.716;17.158;2023-04-15T05:07:14;98010.13;;;5.52;84.75
77587;BME280;66744;49.716;17.158;2023-04-15T05:10:16;98008.63;;;5.51;84.42
77587;BME280;66744;49.716;17.158;2023-04-15T05:13:18;98021.47;;;5.51;84.70
77587;BME280;66744;49.716;17.158;2023-04-15T05:16:19;98027.63;;;5.55;85.44
77587;BME280;66744;49.716;17.158;2023-04-15T05:19:20;98024.44;;;5.56;85.07
77587;BME280;66744;49.716;17.158;2023-04-15T05:22:21;98023.59;;;5.59;84.02
77587;BME280;66744;49.716;17.158;2023-04-15T05:25:23;98022.75;;;5.63;85.08
77587;BME280;66744;49.716;17.158;2023-04-15T05:28:24;98025.81;;;5.65;84.83
77587;BME280;66744;49.716;17.158;2023-04-15T05:31:25;98018.16;;;5.76;84.69
77587;BME280;66744;49.716;17.158;2023-04-15T05:34:26;98021.31;;;5.90;84.47
77587;BME280;66744;49.716;17.158;2023-04-15T05:37:27;98017.69;;;6.09;83.98
77587;BME280;66744;49.716;17.158;2023-04-15T05:40:29;98022.19;;;6.16;83.39
77587;BME280;66744;49.716;17.158;2023-04-15T05:43:31;98014.88;;;6.13;83.28
77587;BME280;66744;49.716;17.158;2023-04-15T05:46:32;98017.19;;;6.14;82.40
77587;BME280;66744;49.716;17.158;2023-04-15T05:49:33;98020.16;;;6.20;83.92
77587;BME280;66744;49.716;17.158;2023-04-15T05:52:34;98024.84;;;6.20;82.02
77587;BME280;66744;49.716;17.158;2023-04-15T05:55:35;98016.88;;;6.25;82.41
77587;BME280;66744;49.716;17.158;2023-04-15T05:58:37;98016.72;;;6.32;83.48
77587;BME280;66744;49.716;17.158;2023-04-15T06:01:38;98023.59;;;6.37;81.86
77587;BME280;66744;49.716;17.158;2023-04-15T06:04:39;98021.88;;;6.43;82.09
77587;BME280;66744;49.716;17.158;2023-04-15T06:07:41;98022.78;;;6.52;81.97
77587;BME280;66744;49.716;17.158;2023-04-15T06:10:43;98032.81;;;6.55;81.51
77587;BME280;66744;49.716;17.158;2023-04-15T06:13:44;98027.59;;;6.61;80.78
77587;BME280;66744;49.716;17.158;2023-04-15T06:16:46;98031.00;;;6.65;81.26
77587;BME280;66744;49.716;17.158;2023-04-15T06:19:50;98036.69;;;6.70;81.02
77587;BME280;66744;49.716;17.158;2023-04-15T06:22:57;98048.59;;;6.77;82.13
77587;BME280;66744;49.716;17.158;2023-04-15T06:25:58;98049.03;;;6.75;81.36
77587;BME280;66744;49.716;17.158;2023-04-15T06:29:00;98053.63;;;6.78;81.32
77587;BME280;66744;49.716;17.158;2023-04-15T06:32:01;98067.25;;;6.78;79.73
77587;BME280;66744;49.716;17.158;2023-04-15T06:35:03;98058.84;;;6.72;79.25
77587;BME280;66744;49.716;17.158;2023-04-15T06:38:05;98053.06;;;6.70;80.77
77587;BME280;66744;49.716;17.158;2023-04-15T06:41:07;98052.19;;;6.74;81.61
77587;BME280;66744;49.716;17.158;2023-04-15T06:44:08;98061.47;;;6.76;79.92
77587;BME280;66744;49.716;17.158;2023-04-15T06:47:09;98059.75;;;6.82;80.64
77587;BME280;66744;49.716;17.158;2023-04-15T06:50:12;98062.38;;;6.86;80.52
77587;BME280;66744;49.716;17.158;2023-04-15T06:53:14;98062.25;;;6.89;80.10
77587;BME280;66744;49.716;17.158;2023-04-15T06:56:15;98058.56;;;6.96;79.78
77587;BME280;66744;49.716;17.158;2023-04-15T06:59:16;98068.53;;;7.02;78.55
77587;BME280;66744;49.716;17.158;2023-04-15T07:02:18;98067.97;;;7.07;79.49
77587;BME280;66744;49.716;17.158;2023-04-15T07:05:19;98071.78;;;7.10;76.57
77587;BME280;66744;49.716;17.158;2023-04-15T07:08:21;98073.25;;;7.27;77.78
77587;BME280;66744;49.716;17.158;2023-04-15T07:11:25;98076.00;;;7.52;78.87
77587;BME280;66744;49.716;17.158;2023-04-15T07:14:26;98072.91;;;7.75;77.15
77587;BME280;66744;49.716;17.158;2023-04-15T07:17:27;98077.06;;;7.93;76.44
77587;BME280;66744;49.716;17.158;2023-04-15T07:20:28;98083.56;;;8.08;76.03
77587;BME280;66744;49.716;17.158;2023-04-15T07:23:30;98080.19;;;8.16;77.25
77587;BME280;66744;49.716;17.158;2023-04-15T07:26:31;98080.81;;;8.20;76.01
77587;BME280;66744;49.716;17.158;2023-04-15T07:29:32;98082.66;;;8.36;75.93
77587;BME280;66744;49.716;17.158;2023-04-15T07:32:33;98078.84;;;8.55;76.79
77587;BME280;66744;49.716;17.158;2023-04-15T07:35:35;98074.22;;;8.65;76.61
77587;BME280;66744;49.716;17.158;2023-04-15T07:38:38;98082.78;;;8.67;74.95
77587;BME280;66744;49.716;17.158;2023-04-15T07:41:39;98082.31;;;8.68;75.65
77587;BME280;66744;49.716;17.158;2023-04-15T07:44:41;98075.78;;;8.87;74.84
77587;BME280;66744;49.716;17.158;2023-04-15T07:47:42;98084.41;;;9.08;74.62
77587;BME280;66744;49.716;17.158;2023-04-15T07:50:43;98085.13;;;9.30;73.69
77587;BME280;66744;49.716;17.158;2023-04-15T07:53:44;98093.44;;;9.48;73.54
77587;BME280;66744;49.716;17.158;2023-04-15T07:56:45;98093.97;;;9.56;73.20
77587;BME280;66744;49.716;17.158;2023-04-15T07:59:47;98089.72;;;9.64;71.83
77587;BME280;66744;49.716;17.158;2023-04-15T08:02:48;98091.13;;;9.77;71.38
77587;BME280;66744;49.716;17.158;2023-04-15T08:05:49;98091.94;;;9.96;72.19
77587;BME280;66744;49.716;17.158;2023-04-15T08:08:50;98100.06;;;10.09;70.79
77587;BME280;66744;49.716;17.158;2023-04-15T08:11:52;98106.97;;;10.22;70.31
77587;BME280;66744;49.716;17.158;2023-04-15T08:14:54;98102.41;;;10.19;70.83
77587;BME280;66744;49.716;17.158;2023-04-15T08:17:57;98115.22;;;10.31;70.75
77587;BME280;66744;49.716;17.158;2023-04-15T08:21:00;98105.94;;;10.47;71.07
77587;BME280;66744;49.716;17.158;2023-04-15T08:24:03;98108.38;;;10.72;70.58
77587;BME280;66744;49.716;17.158;2023-04-15T08:27:04;98100.16;;;10.81;68.54
77587;BME280;66744;49.716;17.158;2023-04-15T08:30:06;98099.69;;;10.83;65.52
77587;BME280;66744;49.716;17.158;2023-04-15T08:33:07;98100.13;;;10.90;68.73
77587;BME280;66744;49.716;17.158;2023-04-15T08:36:09;98098.50;;;10.84;68.43
77587;BME280;66744;49.716;17.158;2023-04-15T08:39:10;98102.59;;;10.88;68.78
77587;BME280;66744;49.716;17.158;2023-04-15T08:42:16;98108.72;;;10.92;66.46
77587;BME280;66744;49.716;17.158;2023-04-15T08:45:18;98110.84;;;10.97;67.92
77587;BME280;66744;49.716;17.158;2023-04-15T08:48:23;98112.03;;;11.05;69.13
77587;BME280;66744;49.716;17.158;2023-04-15T08:51:27;98121.03;;;11.06;65.77
77587;BME280;66744;49.716;17.158;2023-04-15T08:54:28;98120.63;;;10.98;67.67
77587;BME280;66744;49.716;17.158;2023-04-15T08:57:30;98119.53;;;10.96;67.52
77587;BME280;66744;49.716;17.158;2023-04-15T09:00:32;98126.56;;;10.79;69.35
77587;BME280;66744;49.716;17.158;2023-04-15T09:03:34;98131.75;;;10.86;69.78
77587;BME280;66744;49.716;17.158;2023-04-15T09:06:35;98125.78;;;10.78;69.82
77587;BME280;66744;49.716;17.158;2023-04-15T09:09:36;98121.53;;;10.86;68.87
77587;BME280;66744;49.716;17.158;2023-04-15T09:12:40;98125.00;;;10.96;68.51
77587;BME280;66744;49.716;17.158;2023-04-15T09:15:42;98133.13;;;10.90;68.00
77587;BME280;66744;49.716;17.158;2023-04-15T09:18:43;98133.59;;;10.89;66.31
77587;BME280;66744;49.716;17.158;2023-04-15T09:21:47;98137.09;;;10.89;68.71
77587;BME280;66744;49.716;17.158;2023-04-15T09:24:49;98143.50;;;10.86;67.47
77587;BME280;66744;49.716;17.158;2023-04-15T09:27:53;98137.53;;;10.88;66.08
77587;BME280;66744;49.716;17.158;2023-04-15T09:30:56;98141.97;;;11.03;67.18
77587;BME280;66744;49.716;17.158;2023-04-15T09:33:57;98140.44;;;11.11;65.55
77587;BME280;66744;49.716;17.158;2023-04-15T09:36:59;98148.97;;;11.23;66.38
77587;BME280;66744;49.716;17.158;2023-04-15T09:40:00;98143.16;;;11.21;64.79
77587;BME280;66744;49.716;17.158;2023-04-15T09:43:06;98144.06;;;11.27;64.86
77587;BME280;66744;49.716;17.158;2023-04-15T09:46:07;98149.28;;;11.34;63.55
77587;BME280;66744;49.716;17.158;2023-04-15T09:49:10;98151.50;;;11.53;65.05
77587;BME280;66744;49.716;17.158;2023-04-15T09:52:12;98143.06;;;11.75;64.31
77587;BME280;66744;49.716;17.158;2023-04-15T09:55:14;98144.06;;;11.96;63.96
77587;BME280;66744;49.716;17.158;2023-04-15T09:58:29;98147.34;;;12.09;62.96
77587;BME280;66744;49.716;17.158;2023-04-15T10:01:30;98146.59;;;12.08;63.15
77587;BME280;66744;49.716;17.158;2023-04-15T10:04:34;98145.88;;;12.32;62.09
77587;BME280;66744;49.716;17.158;2023-04-15T10:07:38;98149.31;;;12.41;61.31
77587;BME280;66744;49.716;17.158;2023-04-15T10:10:41;98138.66;;;12.58;61.96
77587;BME280;66744;49.716;17.158;2023-04-15T10:13:47;98140.78;;;12.77;62.17
77587;BME280;66744;49.716;17.158;2023-04-15T10:16:49;98141.41;;;12.96;61.07
77587;BME280;66744;49.716;17.158;2023-04-15T10:20:03;98142.63;;;12.95;60.18
77587;BME280;66744;49.716;17.158;2023-04-15T10:23:05;98143.88;;;13.18;62.37
77587;BME280;66744;49.716;17.158;2023-04-15T10:26:09;98147.94;;;13.08;58.50
77587;BME280;66744;49.716;17.158;2023-04-15T10:29:12;98142.72;;;12.86;59.51
77587;BME280;66744;49.716;17.158;2023-04-15T10:32:14;98145.59;;;12.68;60.62
77587;BME280;66744;49.716;17.158;2023-04-15T10:35:16;98146.56;;;12.65;61.31
77587;BME280;66744;49.716;17.158;2023-04-15T10:41:33;98137.25;;;12.39;61.20
77587;BME280;66744;49.716;17.158;2023-04-15T10:44:41;98144.28;;;12.40;61.10
77587;BME280;66744;49.716;17.158;2023-04-15T10:47:42;98140.47;;;12.13;59.90
77587;BME280;66744;49.716;17.158;2023-04-15T10:50:55;98133.13;;;12.10;63.12
77587;BME280;66744;49.716;17.158;2023-04-15T10:54:00;98128.06;;;12.09;61.71
77587;BME280;66744;49.716;17.158;2023-04-15T11:00:18;98128.84;;;12.33;60.67
77587;BME280;66744;49.716;17.158;2023-04-15T11:03:36;98121.69;;;12.03;60.45
77587;BME280;66744;49.716;17.158;2023-04-15T11:06:44;98122.25;;;11.83;61.49
77587;BME280;66744;49.716;17.158;2023-04-15T11:09:48;98117.78;;;12.18;63.09
77587;BME280;66744;49.716;17.158;2023-04-15T11:12:51;98113.44;;;12.50;60.09
77587;BME280;66744;49.716;17.158;2023-04-15T11:15:55;98120.31;;;12.55;60.52
77587;BME280;66744;49.716;17.158;2023-04-15T11:18:58;98120.44;;;12.37;59.35
77587;BME280;66744;49.716;17.158;2023-04-15T11:22:08;98124.81;;;12.19;61.41
77587;BME280;66744;49.716;17.158;2023-04-15T11:25:10;98120.66;;;12.24;60.10
77587;BME280;66744;49.716;17.158;2023-04-15T11:28:12;98124.94;;;12.49;60.02
77587;BME280;66744;49.716;17.158;2023-04-15T11:31:17;98128.91;;;12.48;61.65
77587;BME280;66744;49.716;17.158;2023-04-15T11:34:22;98123.69;;;12.73;59.90
77587;BME280;66744;49.716;17.158;2023-04-15T11:37:28;98122.94;;;13.11;58.66
77587;BME280;66744;49.716;17.158;2023-04-15T11:40:31;98127.41;;;13.23;58.50
77587;BME280;66744;49.716;17.158;2023-04-15T11:43:38;98128.28;;;13.29;56.70
77587;BME280;66744;49.716;17.158;2023-04-15T11:46:39;98129.69;;;13.40;55.91
77587;BME280;66744;49.716;17.158;2023-04-15T11:49:41;98128.72;;;13.57;57.38
77587;BME280;66744;49.716;17.158;2023-04-15T11:52:59;98126.63;;;13.81;60.51
77587;BME280;66744;49.716;17.158;2023-04-15T11:56:10;98128.00;;;14.06;56.98
77587;BME280;66744;49.716;17.158;2023-04-15T11:59:12;98133.72;;;14.03;56.85
77587;BME280;66744;49.716;17.158;2023-04-15T12:02:14;98131.13;;;14.14;56.56
77587;BME280;66744;49.716;17.158;2023-04-15T12:05:15;98137.25;;;14.03;55.31
77587;BME280;66744;49.716;17.158;2023-04-15T12:08:17;98138.47;;;14.02;57.63
77587;BME280;66744;49.716;17.158;2023-04-15T12:11:29;98129.06;;;13.94;58.72
77587;BME280;66744;49.716;17.158;2023-04-15T12:14:36;98130.25;;;13.73;59.64
77587;BME280;66744;49.716;17.158;2023-04-15T12:17:53;98132.72;;;13.71;58.37
77587;BME280;66744;49.716;17.158;2023-04-15T12:21:10;98136.47;;;14.03;58.52
77587;BME280;66744;49.716;17.158;2023-04-15T12:24:13;98142.59;;;14.07;57.83
77587;BME280;66744;49.716;17.158;2023-04-15T12:27:16;98130.56;;;14.10;57.43
77587;BME280;66744;49.716;17.158;2023-04-15T12:30:17;98130.22;;;14.37;56.36
77587;BME280;66744;49.716;17.158;2023-04-15T12:33:24;98129.88;;;14.50;55.75
77587;BME280;66744;49.716;17.158;2023-04-15T12:36:32;98129.53;;;14.62;54.64
77587;BME280;66744;49.716;17.158;2023-04-15T12:39:39;98133.06;;;14.63;55.91
77587;BME280;66744;49.716;17.158;2023-04-15T12:42:44;98143.03;;;14.55;54.75
77587;BME280;66744;49.716;17.158;2023-04-15T12:45:45;98141.69;;;14.50;54.97
77587;BME280;66744;49.716;17.158;2023-04-15T12:48:46;98143.78;;;14.75;56.07
77587;BME280;66744;49.716;17.158;2023-04-15T12:51:48;98143.66;;;14.84;53.93
77587;BME280;66744;49.716;17.158;2023-04-15T12:54:50;98146.13;;;14.82;54.36
77587;BME280;66744;49.716;17.158;2023-04-15T12:57:53;98145.50;;;14.93;54.22
77587;BME280;66744;49.716;17.158;2023-04-15T13:00:54;98153.84;;;14.98;53.99
77587;BME280;66744;49.716;17.158;2023-04-15T13:03:55;98153.34;;;15.00;53.80
77587;BME280;66744;49.716;17.158;2023-04-15T13:06:57;98161.97;;;15.28;53.36
77587;BME280;66744;49.716;17.158;2023-04-15T13:09:58;98167.25;;;15.26;52.73
77587;BME280;66744;49.716;17.158;2023-04-15T13:13:00;98163.59;;;15.14;56.04
77587;BME280;66744;49.716;17.158;2023-04-15T13:16:04;98166.38;;;15.14;53.55
77587;BME280;66744;49.716;17.158;2023-04-15T13:19:06;98168.16;;;14.97;53.71
77587;BME280;66744;49.716;17.158;2023-04-15T13:22:07;98168.66;;;14.95;54.66
77587;BME280;66744;49.716;17.158;2023-04-15T13:25:09;98168.25;;;14.82;54.58
77587;BME280;66744;49.716;17.158;2023-04-15T13:28:10;98164.44;;;14.60;53.20
77587;BME280;66744;49.716;17.158;2023-04-15T13:31:12;98170.75;;;14.60;52.92
77587;BME280;66744;49.716;17.158;2023-04-15T13:34:13;98165.47;;;14.62;55.18
77587;BME280;66744;49.716;17.158;2023-04-15T13:37:14;98169.00;;;14.83;53.49
77587;BME280;66744;49.716;17.158;2023-04-15T13:40:15;98173.06;;;15.08;51.89
77587;BME280;66744;49.716;17.158;2023-04-15T13:43:17;98175.53;;;15.06;53.37
77587;BME280;66744;49.716;17.158;2023-04-15T13:46:18;98180.50;;;14.96;51.68
77587;BME280;66744;49.716;17.158;2023-04-15T13:49:19;98174.41;;;14.92;52.66
77587;BME280;66744;49.716;17.158;2023-04-15T13:52:21;98170.47;;;14.98;52.72
77587;BME280;66744;49.716;17.158;2023-04-15T13:55:23;98172.59;;;14.89;53.55
77587;BME280;66744;49.716;17.158;2023-04-15T13:58:24;98178.66;;;14.73;53.95
77587;BME280;66744;49.716;17.158;2023-04-15T14:01:25;98176.59;;;14.68;55.24
77587;BME280;66744;49.716;17.158;2023-04-15T14:04:27;98181.28;;;14.62;55.12
77587;BME280;66744;49.716;17.158;2023-04-15T14:07:29;98177.41;;;14.33;54.24
77587;BME280;66744;49.716;17.158;2023-04-15T14:10:30;98181.59;;;14.14;54.33
77587;BME280;66744;49.716;17.158;2023-04-15T14:13:32;98191.06;;;13.93;56.52
77587;BME280;66744;49.716;17.158;2023-04-15T14:16:35;98189.06;;;13.64;55.04
77587;BME280;66744;49.716;17.158;2023-04-15T14:19:37;98194.84;;;13.37;55.35
77587;BME280;66744;49.716;17.158;2023-04-15T14:22:38;98194.69;;;13.41;58.62
77587;BME280;66744;49.716;17.158;2023-04-15T14:25:39;98197.72;;;13.43;59.29
77587;BME280;66744;49.716;17.158;2023-04-15T14:28:41;98210.78;;;13.42;57.28
77587;BME280;66744;49.716;17.158;2023-04-15T14:31:45;98206.66;;;13.38;57.40
77587;BME280;66744;49.716;17.158;2023-04-15T14:34:46;98209.59;;;13.34;58.35
77587;BME280;66744;49.716;17.158;2023-04-15T14:37:47;98212.63;;;13.21;58.20
77587;BME280;66744;49.716;17.158;2023-04-15T14:40:48;98220.69;;;13.10;58.33
77587;BME280;66744;49.716;17.158;2023-04-15T14:43:50;98222.13;;;13.20;61.38
77587;BME280;66744;49.716;17.158;2023-04-15T14:46:52;98220.72;;;13.40;59.23
77587;BME280;66744;49.716;17.158;2023-04-15T14:49:54;98225.22;;;13.52;60.72
77587;BME280;66744;49.716;17.158;2023-04-15T14:52:55;98229.25;;;13.65;59.63
77587;BME280;66744;49.716;17.158;2023-04-15T14:55:56;98233.72;;;13.77;58.10
77587;BME280;66744;49.716;17.158;2023-04-15T14:58:57;98238.00;;;13.93;57.72
77587;BME280;66744;49.716;17.158;2023-04-15T15:01:58;98229.69;;;14.08;57.35
77587;BME280;66744;49.716;17.158;2023-04-15T15:05:00;98242.84;;;14.27;58.59
77587;BME280;66744;49.716;17.158;2023-04-15T15:08:05;98245.44;;;14.16;57.58
77587;BME280;66744;49.716;17.158;2023-04-15T15:11:07;98241.06;;;13.95;57.46
77587;BME280;66744;49.716;17.158;2023-04-15T15:14:08;98249.81;;;13.79;59.58
77587;BME280;66744;49.716;17.158;2023-04-15T15:17:10;98255.69;;;13.72;60.34
77587;BME280;66744;49.716;17.158;2023-04-15T15:20:11;98249.34;;;13.66;59.25
77587;BME280;66744;49.716;17.158;2023-04-15T15:23:12;98252.66;;;13.70;58.63
77587;BME280;66744;49.716;17.158;2023-04-15T15:26:13;98251.53;;;13.76;59.84
77587;BME280;66744;49.716;17.158;2023-04-15T15:29:15;98254.66;;;13.84;58.61
77587;BME280;66744;49.716;17.158;2023-04-15T15:32:16;98256.47;;;13.72;58.93
77587;BME280;66744;49.716;17.158;2023-04-15T15:35:17;98260.47;;;13.71;56.39
77587;BME280;66744;49.716;17.158;2023-04-15T15:38:21;98258.69;;;13.83;61.45
77587;BME280;66744;49.716;17.158;2023-04-15T15:41:22;98271.91;;;13.93;57.59
77587;BME280;66744;49.716;17.158;2023-04-15T15:44:23;98280.09;;;13.88;57.54
77587;BME280;66744;49.716;17.158;2023-04-15T15:47:25;98272.56;;;13.74;58.28
77587;BME280;66744;49.716;17.158;2023-04-15T15:50:26;98278.44;;;13.67;58.61
77587;BME280;66744;49.716;17.158;2023-04-15T15:53:28;98285.84;;;13.61;58.34
77587;BME280;66744;49.716;17.158;2023-04-15T15:56:29;98281.94;;;13.53;58.31
77587;BME280;66744;49.716;17.158;2023-04-15T15:59:30;98291.13;;;13.35;58.53
77587;BME280;66744;49.716;17.158;2023-04-15T16:02:35;98286.03;;;13.19;59.16
77587;BME280;66744;49.716;17.158;2023-04-15T16:05:36;98285.81;;;13.08;61.35